hero-logo

Top 15 Knowers of BIIB Biogen Inc - 2017-07-26

Rank Fund Result (K)
1 Paloma Partners Management Co $2,406
2 Eton Park Capital Management L P $2,201
3 Partner Fund Management L P $1,981
4 Mckinley Capital Management Llc Delaware $1,009
5 Assenagon Asset Management S A $824
6 Carlson Capital L P $410
7 Highbridge Capital Management Llc $298
8 Iguana Healthcare Management Llc $254
9 Squarepoint Ops Llc $223
10 California State Teachers Retirement System $203
11 Highvista Strategies Llc $178
12 Ghost Tree Capital Llc $152
13 Group One Trading L P $135
14 Jacobs Levy Equity Management Inc $124
15 A R T Advisors Llc $123
Price Chart and News From Google Finance for BIIB Biogen Inc
Owner Date Shares Change Price Change Result (K)
361 Capital Llc 2017-03-31 105 $-10.16 $-1
Acrospire Investment Management Llc 2017-03-31 -500 $-10.16 $5
Adams Diversified Equity Fund Inc 2017-03-31 0 $-10.16 $0
Afam Capital Inc 2017-03-31 127 $-10.16 $-1
Ahl Partners Llp 2017-03-31 5,612 $-10.16 $-57
Allsquare Wealth Management Llc 2017-03-31 -22 $-10.16 $0
Alpine Partners Vi Llc 2017-03-31 1,370 $-10.16 $-13
Amalgamated Bank 2017-03-31 -7,128 $-10.16 $72
American Money Management Llc 2017-03-31 14 $-10.16 $0
Amf Pensionsforsakring Ab 2017-03-31 -3,488 $-10.16 $35
Ancora Advisors Llc 2017-03-31 17 $-10.16 $0
Aperio Group Llc 2017-03-31 2,498 $-10.16 $-25
Archford Capital Strategies Llc 2017-03-31 -4 $-10.16 $0
Arrow Financial Corp 2017-03-31 -1,025 $-10.16 $10
A R T Advisors Llc 2017-03-31 -12,200 $-10.16 $123
Assenagon Asset Management S A 2017-03-31 -81,184 $-10.16 $824
Assetmark Inc 2017-03-31 10 $-10.16 $0
Asymmetry Capital Management L P 2017-03-31 3,073 $-10.16 $-31
Atlanta Capital Management Co L L C 2017-03-31 -4,722 $-10.16 $47
Auxier Asset Management 2017-03-31 570 $-10.16 $-5
Avalon Advisors Llc 2017-03-31 19,831 $-10.16 $-201
Baker Bros Advisors Lp 2017-03-31 0 $-10.16 $0
Balentine Llc 2017-03-31 -20 $-10.16 $0
Beacon Trust Co 2017-03-31 6 $-10.16 $0
Bedell Frazier Investment Counseling Llc 2017-03-31 1,762 $-10.16 $-17
Bienville Capital Management Llc 2017-03-31 0 $-10.16 $0
Blair William Co Il 2017-03-31 -8,225 $-10.16 $83
Bogle Investment Management L P De 2017-03-31 40,019 $-10.16 $-406
Bokf Na 2017-03-31 -387 $-10.16 $3
Boston Common Asset Management Llc 2017-03-31 61 $-10.16 $0
Boston Private Wealth Llc 2017-03-31 -186 $-10.16 $1
Botty Investors Llc 2017-03-31 -280 $-10.16 $2
Bowling Portfolio Management Llc 2017-03-31 15,856 $-10.16 $-161
Brinker Capital Inc 2017-03-31 -1,248 $-10.16 $12
Brown Brothers Harriman Co 2017-03-31 -183 $-10.16 $1
B S Pension Fund Trustee Ltd Acting For The British Steel P 2017-03-31 9,249 $-10.16 $-93
California State Teachers Retirement System 2017-03-31 -20,000 $-10.16 $203
Capital Guardian Trust Co 2017-03-31 -203 $-10.16 $2
Capstone Investment Advisors Llc 2017-03-31 17,594 $-10.16 $-178
Carlson Capital L P 2017-03-31 -40,357 $-10.16 $410
Caxton Associates Lp 2017-03-31 1,200 $-10.16 $-12
Cetera Advisor Networks Llc 2017-03-31 144 $-10.16 $-1
Cetera Advisors Llc 2017-03-31 1,070 $-10.16 $-10
Chelsea Counsel Co 2017-03-31 -1,500 $-10.16 $15
Clear Perspective Advisors Llc 2017-03-31 0 $-10.16 $0
Colony Group Llc 2017-03-31 739 $-10.16 $-7
Compagnie Lombard Odier Scma 2017-03-31 1,246 $-10.16 $-12
Cornerstone Capital Management Holdings Llc 2017-03-31 -5,698 $-10.16 $57
Cqs Cayman Lp 2017-03-31 1,050 $-10.16 $-10
Crawford Lake Capital Management Llc 2017-03-31 -1,480 $-10.16 $15
Crestline Management Lp 2017-03-31 -5,832 $-10.16 $59
D A Davidson Co 2017-03-31 -999 $-10.16 $10
Dempze Nancy E 2017-03-31 0 $-10.16 $0
Eagle Global Advisors Llc 2017-03-31 428 $-10.16 $-4
Earnest Partners Llc 2017-03-31 -102 $-10.16 $1
Edmond De Rothschild Holding S A 2017-03-31 -23 $-10.16 $0
Ellington Management Group Llc 2017-03-31 0 $-10.16 $0
Endurant Capital Management Lp 2017-03-31 1,700 $-10.16 $-17
Envestnet Asset Management Inc 2017-03-31 5,984 $-10.16 $-60
Estabrook Capital Management 2017-03-31 0 $-10.16 $0
Eton Park Capital Management L P 2017-03-31 -216,691 $-10.16 $2,201
Eulav Asset Management 2017-03-31 -2,000 $-10.16 $20
Fairfield Bush Co 2017-03-31 0 $-10.16 $0
Fdo Partners Llc 2017-03-31 3,379 $-10.16 $-34
Fdx Advisors Inc 2017-03-31 -47 $-10.16 $0
Fernwood Investment Management Llc 2017-03-31 -180 $-10.16 $1
Fic Capital Inc 2017-03-31 -375 $-10.16 $3
Fiera Capital Corp 2017-03-31 202 $-10.16 $-2
First Foundation Advisors 2017-03-31 -4,031 $-10.16 $40
First Heartland Consultants Inc 2017-03-31 -871 $-10.16 $8
First Republic Investment Management Inc 2017-03-31 -1,679 $-10.16 $17
Flagship Harbor Advisors Llc 2017-03-31 -4 $-10.16 $0
Focused Wealth Management Inc 2017-03-31 0 $-10.16 $0
Forbes J M Co Llp 2017-03-31 0 $-10.16 $0
Fortaleza Asset Management Inc 2017-03-31 0 $-10.16 $0
Franklin Parlapiano Turner Welch Llc 2017-03-31 0 $-10.16 $0
Gardner Lewis Asset Management L P 2017-03-31 -8,355 $-10.16 $84
Ghost Tree Capital Llc 2017-03-31 -15,000 $-10.16 $152
Gilbert Cook Inc 2017-03-31 35 $-10.16 $0
Glassman Wealth Services 2017-03-31 -24 $-10.16 $0
Glen Harbor Capital Management Llc 2017-03-31 6,608 $-10.16 $-67
Glg Llc 2017-03-31 9,951 $-10.16 $-101
Glg Partners Lp 2017-03-31 3,043 $-10.16 $-30
Gotham Asset Management Llc 2017-03-31 35,149 $-10.16 $-357
Graticule Asia Macro Advisors Llc 2017-03-31 24,795 $-10.16 $-251
Gratus Capital Llc 2017-03-31 0 $-10.16 $0
Group One Trading L P 2017-03-31 -13,345 $-10.16 $135
Gruss Co Inc 2017-03-31 750 $-10.16 $-7
Gsa Capital Partners Llp 2017-03-31 5,018 $-10.16 $-50
Guardian Capital Lp 2017-03-31 -719 $-10.16 $7
Guggenheim Capital Llc 2017-03-31 1,953 $-10.16 $-19
Guinness Asset Management Ltd 2017-03-31 0 $-10.16 $0
Hanson Doremus Investment Management 2017-03-31 0 $-10.16 $0
Hbk Sorce Advisory Llc 2017-03-31 -121 $-10.16 $1
Highbridge Capital Management Llc 2017-03-31 -29,405 $-10.16 $298
Highvista Strategies Llc 2017-03-31 -17,600 $-10.16 $178
Holland Capital Management Llc 2017-03-31 20,166 $-10.16 $-204
Horizon Investment Services Llc 2017-03-31 -397 $-10.16 $4
Horizon Kinetics Llc 2017-03-31 -2,010 $-10.16 $20
Hutchin Hill Capital Lp 2017-03-31 -3,100 $-10.16 $31
Ibex Wealth Advisors 2017-03-31 86 $-10.16 $0
Ifp Advisors Inc 2017-03-31 174 $-10.16 $-1
Iguana Healthcare Management Llc 2017-03-31 -25,000 $-10.16 $254
Iht Wealth Management Llc 2017-03-31 -85 $-10.16 $0
Infrastructure Capital Advisors Llc 2017-03-31 -1,800 $-10.16 $18
Intact Investment Management Inc 2017-03-31 -2,400 $-10.16 $24
Intellectus Partners Llc 2017-03-31 196 $-10.16 $-1
Israel Discount Bank Of New York 2017-03-31 650 $-10.16 $-6
Itau Unibanco Holding S A 2017-03-31 -211 $-10.16 $2
Jacobs Levy Equity Management Inc 2017-03-31 -12,273 $-10.16 $124
Jafra Capital Management Lp 2017-03-31 6,000 $-10.16 $-60
Jane Street Group Llc 2017-03-31 26,990 $-10.16 $-274
Jet Capital Investors L P 2017-03-31 110,069 $-10.16 $-1,118
Johnson Investment Counsel Inc 2017-03-31 -604 $-10.16 $6
Kelly Lawrence W Associates Inc Ca 2017-03-31 8 $-10.16 $0
Kentucky Retirement Systems 2017-03-31 -1,946 $-10.16 $19
Kentucky Retirement Systems Insurance Trust Fund 2017-03-31 -1,206 $-10.16 $12
Kernodle Katon Asset Management Group Llc 2017-03-31 0 $-10.16 $0
Krilogy Financial Llc 2017-03-31 0 $-10.16 $0
Ladenburg Thalmann Financial Services Inc 2017-03-31 1,243 $-10.16 $-12
Laurel Wealth Advisors Inc 2017-03-31 146 $-10.16 $-1
Leucadia National Corp 2017-03-31 1,716 $-10.16 $-17
Logan Capital Management Inc 2017-03-31 -738 $-10.16 $7
Loomis Sayles Co L P 2017-03-31 13,509 $-10.16 $-137
Lowe Brockenbrough Co Inc 2017-03-31 -50 $-10.16 $0
Madison Investment Holdings Inc 2017-03-31 0 $-10.16 $0
Maple Capital Management Inc 2017-03-31 -20 $-10.16 $0
Marietta Investment Partners Llc 2017-03-31 24 $-10.16 $0
Mason Street Advisors Llc 2017-03-31 73 $-10.16 $0
Mckinley Capital Management Llc Delaware 2017-03-31 -99,374 $-10.16 $1,009
Meadow Creek Investment Management Llc 2017-03-31 5,192 $-10.16 $-52
Mogy Joel R Investment Counsel Inc 2017-03-31 0 $-10.16 $0
Moloney Securities Asset Management Llc 2017-03-31 41 $-10.16 $0
Montecito Bank Trust 2017-03-31 -1,298 $-10.16 $13
Mv Capital Management Inc 2017-03-31 0 $-10.16 $0
Narus Financial Partners Llc 2017-03-31 0 $-10.16 $0
National Asset Management Inc 2017-03-31 225 $-10.16 $-2
Northwestern Mutual Investment Management Company Llc 2017-03-31 18,660 $-10.16 $-189
Northwestern Mutual Wealth Management Co 2017-03-31 12,932 $-10.16 $-131
Optimum Investment Advisors 2017-03-31 -150 $-10.16 $1
Opus Point Partners Management Llc 2017-03-31 532 $-10.16 $-5
Oracle Investment Management Inc 2017-03-31 -355 $-10.16 $3
Orbimed Advisors Llc 2017-03-31 155,700 $-10.16 $-1,581
Pacific Center For Financial Services 2017-03-31 0 $-10.16 $0
Paloma Partners Management Co 2017-03-31 -236,904 $-10.16 $2,406
Partner Fund Management L P 2017-03-31 -195,046 $-10.16 $1,981
Partner Investment Management L P 2017-03-31 -4,570 $-10.16 $46
Passport Capital Llc 2017-03-31 -233 $-10.16 $2
Patriot Financial Group Insurance Agency Llc 2017-03-31 0 $-10.16 $0
Perigon Wealth Management Llc 2017-03-31 10 $-10.16 $0
Piedmont Investment Advisors Llc 2017-03-31 399 $-10.16 $-4
Pinkerton Retirement Specialists Llc 2017-03-31 -24 $-10.16 $0
Plancorp Llc 2017-03-31 0 $-10.16 $0
Platinum Investment Management Ltd 2017-03-31 0 $-10.16 $0
Polar Capital Llp 2017-03-31 0 $-10.16 $0
Proficio Capital Partners Llc 2017-03-31 89 $-10.16 $0
Public Employees Retirement System Of Ohio 2017-03-31 0 $-10.16 $0
Qcm Cayman Ltd 2017-03-31 1,444 $-10.16 $-14
Quest Investment Management Inc Or 2017-03-31 -86 $-10.16 $0
Raymond James Associates 2017-03-31 22,432 $-10.16 $-227
Reynders Mcveigh Capital Management Llc 2017-03-31 -66 $-10.16 $0
Riverhead Capital Management Llc 2017-03-31 6,040 $-10.16 $-61
Rock Springs Capital Management Lp 2017-03-31 1,000 $-10.16 $-10
Rothschild Asset Management Inc 2017-03-31 -1,542 $-10.16 $15
Samlyn Capital Llc 2017-03-31 275,500 $-10.16 $-2,799
Schonfeld Strategic Advisors Llc 2017-03-31 -4,601 $-10.16 $46
Segall Bryant Hamill Llc 2017-03-31 25 $-10.16 $0
Sentinel Asset Management Inc 2017-03-31 -11,400 $-10.16 $115
Sequoia Financial Advisors Llc 2017-03-31 1,157 $-10.16 $-11
Seven Eight Capital Lp 2017-03-31 -2,400 $-10.16 $24
Signaturefd Llc 2017-03-31 124 $-10.16 $-1
Silvercrest Asset Management Group Llc 2017-03-31 -1,144 $-10.16 $11
Sio Capital Management Llc 2017-03-31 27,650 $-10.16 $-280
Sowell Financial Services Llc 2017-03-31 -772 $-10.16 $7
Squarepoint Ops Llc 2017-03-31 -21,953 $-10.16 $223
Srs Capital Advisors Inc 2017-03-31 78 $-10.16 $0
Steinberg Global Asset Management 2017-03-31 -346 $-10.16 $3
Sterling Capital Management Llc 2017-03-31 27,317 $-10.16 $-277
Sterling Investment Advisors Ltd 2017-03-31 0 $-10.16 $0
Stifel Financial Corp 2017-03-31 11,980 $-10.16 $-121
Strategic Wealth Advisors Group Llc 2017-03-31 72,263 $-10.16 $-734
Sva Plumb Wealth Management Llc 2017-03-31 442 $-10.16 $-4
Tributary Capital Management Llc 2017-03-31 -150 $-10.16 $1
Truenorth Inc 2017-03-31 4,421 $-10.16 $-44
Two Sigma Securities Llc 2017-03-31 -1,856 $-10.16 $18
United Capital Financial Advisers Llc 2017-03-31 6,156 $-10.16 $-62
Veritable L P 2017-03-31 156 $-10.16 $-1
Verition Fund Management Llc 2017-03-31 -8,844 $-10.16 $89
Walleye Trading Llc 2017-03-31 -669 $-10.16 $6
Wall Street Access Asset Management Llc 2017-03-31 -3,026 $-10.16 $30
Waters Parkerson Co Llc 2017-03-31 0 $-10.16 $0
Webster Bank N A 2017-03-31 -6 $-10.16 $0
Westside Investment Management Inc 2017-03-31 1,222 $-10.16 $-12
Yorkbridge Wealth Partners Llc 2017-03-31 155 $-10.16 $-1